createdAt,value
2018-05-07T00:00:54.221Z,101826.97
2018-05-07T00:01:58.413Z,101828.25
2018-05-07T00:03:02.850Z,101827.45
2018-05-07T00:04:07.013Z,101830.09
2018-05-07T00:05:11.946Z,101825.48
2018-05-07T00:06:17.022Z,101825.71
2018-05-07T00:07:21.072Z,101827.31
2018-05-07T00:08:26.839Z,101829.66
2018-05-07T00:09:31.276Z,101824.46
2018-05-07T00:10:35.405Z,101827.16
2018-05-07T00:11:39.628Z,101828.55
2018-05-07T00:12:44.540Z,101824.36
2018-05-07T00:13:48.769Z,101829.12
2018-05-07T00:14:52.925Z,101830.04
2018-05-07T00:15:57.896Z,101826.89
2018-05-07T00:17:02.060Z,101826.59
2018-05-07T00:18:06.984Z,101825.83
2018-05-07T00:19:11.913Z,101826.88
2018-05-07T00:20:16.841Z,101831.74
2018-05-07T00:21:21.974Z,101830.47
2018-05-07T00:22:26.215Z,101833.98
2018-05-07T00:23:30.388Z,101833.45
2018-05-07T00:24:35.320Z,101831.05
2018-05-07T00:25:40.245Z,101826.67
2018-05-07T00:26:45.236Z,101829.64
2018-05-07T00:27:49.418Z,101824.47
2018-05-07T00:28:53.583Z,101824.54
2018-05-07T00:29:57.749Z,101824.59
2018-05-07T00:31:01.912Z,101824.11
2018-05-07T00:32:06.123Z,101822.54
2018-05-07T00:33:11.092Z,101820.03
2018-05-07T00:34:15.882Z,101816.09
2018-05-07T00:35:20.812Z,101817.17
2018-05-07T00:36:25.761Z,101819.52
2018-05-07T00:37:29.934Z,101816.20
2018-05-07T00:38:34.865Z,101813.52
2018-05-07T00:39:39.867Z,101814.45
2018-05-07T00:40:44.042Z,101820.20
2018-05-07T00:41:48.204Z,101815.53
2018-05-07T00:42:53.877Z,101818.48
2018-05-07T00:43:58.816Z,101820.31
2018-05-07T00:45:03.027Z,101817.30
2018-05-07T00:46:07.421Z,101819.89
2018-05-07T00:47:12.349Z,101814.30
2018-05-07T00:48:17.282Z,101810.86
2018-05-07T00:49:22.214Z,101814.44
2018-05-07T00:50:27.141Z,101815.39
2018-05-07T00:51:32.132Z,101812.06
2018-05-07T00:52:36.318Z,101812.87
2018-05-07T00:53:40.496Z,101813.76
2018-05-07T00:55:02.433Z,101811.81
2018-05-07T00:56:06.604Z,101809.01
2018-05-07T00:57:11.565Z,101809.03
2018-05-07T00:58:15.728Z,101811.67
2018-05-07T00:59:19.988Z,101809.91
2018-05-07T01:00:24.218Z,101810.64
2018-05-07T01:01:28.382Z,101815.81
2018-05-07T01:02:33.316Z,101817.16
2018-05-07T01:03:38.249Z,101812.03
2018-05-07T01:04:43.173Z,101814.73
2018-05-07T01:05:48.130Z,101816.34
2018-05-07T01:06:52.297Z,101810.42
2018-05-07T01:07:56.457Z,101816.52
2018-05-07T01:09:00.643Z,101815.20
2018-05-07T01:10:05.097Z,101817.66
2018-05-07T01:11:09.225Z,101820.11
2018-05-07T01:12:13.401Z,101818.66
2018-05-07T01:13:17.566Z,101821.00
2018-05-07T01:14:22.501Z,101814.13
2018-05-07T01:15:27.634Z,101813.59
2018-05-07T01:16:32.566Z,101812.77
2018-05-07T01:17:37.492Z,101819.23
2018-05-07T01:18:42.423Z,101815.81
2018-05-07T01:19:47.358Z,101822.73
2018-05-07T01:20:52.337Z,101819.78
2018-05-07T01:21:56.520Z,101817.71
2018-05-07T01:23:00.780Z,101818.64
2018-05-07T01:24:04.948Z,101822.52
2018-05-07T01:25:09.116Z,101817.73
2018-05-07T01:26:14.081Z,101819.53
2018-05-07T01:27:18.258Z,101819.55
2018-05-07T01:28:23.246Z,101821.22
2018-05-07T01:29:27.421Z,101818.34
2018-05-07T01:30:31.592Z,101824.90
2018-05-07T01:31:35.769Z,101825.39
2018-05-07T01:32:39.942Z,101826.64
2018-05-07T01:33:44.132Z,101823.21
2018-05-07T01:34:49.073Z,101827.61
2018-05-07T01:35:53.286Z,101823.34
2018-05-07T01:36:57.458Z,101828.48
2018-05-07T01:38:01.653Z,101828.12
2018-05-07T01:39:05.836Z,101829.55
2018-05-07T01:40:10.019Z,101828.77
2018-05-07T01:41:14.190Z,101829.40
2018-05-07T01:42:18.380Z,101834.25
2018-05-07T01:43:22.576Z,101830.37
2018-05-07T01:44:26.764Z,101824.41
2018-05-07T01:45:30.949Z,101825.30
2018-05-07T01:46:36.007Z,101832.81
2018-05-07T01:47:40.185Z,101830.17
2018-05-07T01:48:45.117Z,101829.41
2018-05-07T01:49:50.048Z,101833.42
2018-05-07T01:50:55.011Z,101829.67
2018-05-07T01:51:59.205Z,101831.95
2018-05-07T01:53:03.422Z,101829.03
2018-05-07T01:54:07.585Z,101829.56
2018-05-07T01:55:11.769Z,101829.65
2018-05-07T01:56:15.997Z,101826.31
2018-05-07T01:57:20.169Z,101823.80
2018-05-07T01:58:24.348Z,101829.48
2018-05-07T01:59:29.285Z,101828.56
2018-05-07T02:00:34.216Z,101821.15
2018-05-07T02:01:39.181Z,101823.80
2018-05-07T02:02:43.753Z,101822.45
2018-05-07T02:03:48.702Z,101828.09
2018-05-07T02:04:52.860Z,101822.81
2018-05-07T02:05:57.044Z,101826.31
2018-05-07T02:07:01.214Z,101827.28
2018-05-07T02:08:06.173Z,101827.70
2018-05-07T02:09:10.336Z,101824.31
2018-05-07T02:10:15.286Z,101825.15
2018-05-07T02:11:20.235Z,101826.45
2018-05-07T02:12:24.406Z,101829.56
2018-05-07T02:13:30.501Z,101825.84
2018-05-07T02:14:34.668Z,101825.28
2018-05-07T02:15:40.447Z,101825.75
2018-05-07T02:16:44.609Z,101824.59
2018-05-07T02:17:48.781Z,101827.24
2018-05-07T02:18:53.373Z,101822.06
2018-05-07T02:19:58.301Z,101822.50
2018-05-07T02:21:03.239Z,101820.83
2018-05-07T02:22:07.400Z,101815.27
2018-05-07T02:23:11.613Z,101814.91
2018-05-07T02:24:15.835Z,101818.63
2018-05-07T02:25:20.019Z,101819.47
2018-05-07T02:26:24.186Z,101821.20
2018-05-07T02:27:29.117Z,101816.09
2018-05-07T02:28:34.062Z,101819.95
2018-05-07T02:29:38.281Z,101816.48
2018-05-07T02:30:42.461Z,101817.88
2018-05-07T02:31:47.404Z,101814.94
2018-05-07T02:32:51.565Z,101813.33
2018-05-07T02:33:55.737Z,101812.06
2018-05-07T02:35:00.326Z,101814.94
2018-05-07T02:36:04.526Z,101814.59
2018-05-07T02:37:09.456Z,101809.50
2018-05-07T02:38:14.390Z,101810.73
2018-05-07T02:39:19.329Z,101809.58
2018-05-07T02:40:23.534Z,101811.27
2018-05-07T02:41:28.474Z,101811.64
2018-05-07T02:42:32.778Z,101806.94
2018-05-07T02:43:36.953Z,101810.77
2018-05-07T02:44:41.132Z,101814.30
2018-05-07T02:45:45.307Z,101817.38
2018-05-07T02:46:49.490Z,101817.41
2018-05-07T02:47:54.041Z,101813.08
2018-05-07T02:48:58.254Z,101810.45
2018-05-07T02:50:02.432Z,101814.34
2018-05-07T02:51:08.097Z,101808.34
2018-05-07T02:52:13.026Z,101810.92
2018-05-07T02:53:17.438Z,101814.27
2018-05-07T02:54:22.383Z,101812.14
2018-05-07T02:55:26.560Z,101812.08
2018-05-07T02:56:30.733Z,101809.45
2018-05-07T02:57:34.893Z,101812.44
2018-05-07T02:58:39.886Z,101808.55
2018-05-07T02:59:44.058Z,101807.77
2018-05-07T03:00:48.235Z,101807.09
2018-05-07T03:01:53.164Z,101811.34
2018-05-07T03:02:58.097Z,101806.56
2018-05-07T03:04:03.424Z,101806.14
2018-05-07T03:05:08.353Z,101807.43
2018-05-07T03:06:13.286Z,101810.90
2018-05-07T03:07:18.214Z,101809.66
2018-05-07T03:08:23.153Z,101809.02
2018-05-07T03:09:27.345Z,101808.03
2018-05-07T03:10:32.581Z,101814.55
2018-05-07T03:11:37.509Z,101807.63
2018-05-07T03:12:42.453Z,101809.36
2018-05-07T03:13:46.621Z,101808.11
2018-05-07T03:14:50.809Z,101805.86
2018-05-07T03:15:55.040Z,101807.26
2018-05-07T03:16:59.207Z,101806.45
2018-05-07T03:18:03.377Z,101805.64
2018-05-07T03:19:07.542Z,101800.95
2018-05-07T03:20:11.728Z,101802.81
2018-05-07T03:21:15.916Z,101799.36
2018-05-07T03:22:20.882Z,101798.53
2018-05-07T03:23:25.058Z,101803.84
2018-05-07T03:24:29.993Z,101804.70
2018-05-07T03:25:34.950Z,101800.80
2018-05-07T03:26:39.509Z,101803.86
2018-05-07T03:27:43.681Z,101801.80
2018-05-07T03:28:47.867Z,101802.27
2018-05-07T03:29:52.036Z,101809.11
2018-05-07T03:30:57.718Z,101802.84
2018-05-07T03:32:01.914Z,101801.50
2018-05-07T03:33:07.054Z,101799.80
2018-05-07T03:34:11.989Z,101795.58
2018-05-07T03:35:16.926Z,101797.76
2018-05-07T03:36:21.106Z,101799.11
2018-05-07T03:37:26.045Z,101790.88
2018-05-07T03:38:31.486Z,101791.30
2018-05-07T03:39:36.433Z,101794.38
2018-05-07T03:40:40.598Z,101791.50
2018-05-07T03:41:44.760Z,101798.39
2018-05-07T03:42:48.941Z,101797.62
2018-05-07T03:43:54.013Z,101795.02
2018-05-07T03:44:58.189Z,101799.33
2018-05-07T03:46:03.132Z,101791.66
2018-05-07T03:47:07.309Z,101797.28
2018-05-07T03:48:12.661Z,101794.25
2018-05-07T03:49:17.593Z,101789.91
2018-05-07T03:50:22.528Z,101795.95
2018-05-07T03:51:26.697Z,101796.83
2018-05-07T03:52:30.864Z,101795.97
2018-05-07T03:53:35.060Z,101791.33
2018-05-07T03:54:39.246Z,101790.84
2018-05-07T03:55:44.172Z,101794.72
2018-05-07T03:56:49.227Z,101783.56
2018-05-07T03:57:53.402Z,101786.16
2018-05-07T03:58:57.647Z,101786.56
2018-05-07T04:00:01.813Z,101788.34
2018-05-07T04:01:06.003Z,101790.55
2018-05-07T04:02:10.185Z,101790.57
2018-05-07T04:03:14.352Z,101789.33
2018-05-07T04:04:18.794Z,101792.77
2018-05-07T04:05:23.791Z,101791.06
2018-05-07T04:06:27.964Z,101793.33
2018-05-07T04:07:32.132Z,101789.00
2018-05-07T04:08:37.066Z,101784.36
2018-05-07T04:09:42.013Z,101781.91
2018-05-07T04:10:46.191Z,101776.64
2018-05-07T04:11:51.133Z,101780.52
2018-05-07T04:12:56.089Z,101779.19
2018-05-07T04:14:00.305Z,101779.61
2018-05-07T04:15:04.492Z,101779.16
2018-05-07T04:16:08.657Z,101773.58
2018-05-07T04:17:30.718Z,101770.70
2018-05-07T04:18:53.293Z,101769.88
2018-05-07T04:20:15.200Z,101767.38
2018-05-07T04:21:20.165Z,101767.77
2018-05-07T04:22:42.057Z,101771.56
2018-05-07T04:24:07.962Z,101769.60
2018-05-07T04:25:12.969Z,101767.19
2018-05-07T04:26:17.173Z,101770.02
2018-05-07T04:27:21.346Z,101768.87
2018-05-07T04:28:25.512Z,101769.44
2018-05-07T04:29:29.672Z,101767.41
2018-05-07T04:30:33.854Z,101774.02
2018-05-07T04:31:38.035Z,101770.27
2018-05-07T04:32:42.365Z,101769.98
2018-05-07T04:33:47.386Z,101776.64
2018-05-07T04:34:51.489Z,101773.89
2018-05-07T04:35:55.718Z,101772.33
2018-05-07T04:37:00.661Z,101771.66
2018-05-07T04:38:04.952Z,101770.13
2018-05-07T04:39:09.876Z,101772.37
2018-05-07T04:40:14.840Z,101773.07
2018-05-07T04:41:19.055Z,101764.81
2018-05-07T04:42:23.221Z,101767.44
2018-05-07T04:43:28.178Z,101763.78
2018-05-07T04:44:32.345Z,101764.32
2018-05-07T04:45:36.516Z,101767.48
2018-05-07T04:46:40.677Z,101763.37
2018-05-07T04:47:45.618Z,101767.94
2018-05-07T04:48:50.654Z,101771.95
2018-05-07T04:49:54.761Z,101768.49
2018-05-07T04:50:59.694Z,101765.14
2018-05-07T04:52:04.673Z,101770.76
2018-05-07T04:53:08.846Z,101768.33
2018-05-07T04:54:13.014Z,101769.22
2018-05-07T04:55:17.182Z,101767.58
2018-05-07T04:56:21.356Z,101770.54
2018-05-07T04:57:26.329Z,101767.09
2018-05-07T04:58:30.516Z,101758.89
2018-05-07T04:59:34.713Z,101764.17
2018-05-07T05:00:38.901Z,101759.34
2018-05-07T05:01:43.841Z,101760.67
2018-05-07T05:02:48.964Z,101760.52
2018-05-07T05:03:53.892Z,101757.59
2018-05-07T05:04:58.820Z,101757.22
2018-05-07T05:06:03.766Z,101757.55
2018-05-07T05:07:07.988Z,101754.16
2018-05-07T05:08:12.916Z,101758.81
2018-05-07T05:09:17.318Z,101758.70
2018-05-07T05:10:22.254Z,101756.55
2018-05-07T05:11:26.438Z,101760.68
2018-05-07T05:12:30.608Z,101752.48
2018-05-07T05:13:34.773Z,101754.16
2018-05-07T05:14:39.892Z,101751.63
2018-05-07T05:15:44.834Z,101755.31
2018-05-07T05:16:49.766Z,101750.98
2018-05-07T05:17:53.942Z,101753.88
2018-05-07T05:18:58.112Z,101755.52
2018-05-07T05:20:02.325Z,101756.23
2018-05-07T05:21:06.566Z,101757.76
2018-05-07T05:22:10.692Z,101752.83
2018-05-07T05:23:15.629Z,101757.38
2018-05-07T05:24:20.561Z,101757.61
2018-05-07T05:25:24.796Z,101758.73
2018-05-07T05:26:28.961Z,101759.98
2018-05-07T05:27:33.131Z,101762.36
2018-05-07T05:28:37.288Z,101769.11
2018-05-07T05:29:42.216Z,101766.05
2018-05-07T05:30:46.445Z,101766.23
2018-05-07T05:31:51.432Z,101769.53
2018-05-07T05:32:57.112Z,101772.28
2018-05-07T05:34:02.040Z,101766.19
2018-05-07T05:35:06.990Z,101768.55
2018-05-07T05:36:11.158Z,101770.16
2018-05-07T05:37:16.169Z,101770.00
2018-05-07T05:38:20.300Z,101760.95
2018-05-07T05:39:25.657Z,101767.78
2018-05-07T05:40:29.778Z,101763.91
2018-05-07T05:41:33.985Z,101765.12
2018-05-07T05:42:38.150Z,101763.33
2018-05-07T05:43:42.426Z,101762.30
2018-05-07T05:44:47.018Z,101760.30
2018-05-07T05:45:51.949Z,101763.60
2018-05-07T05:46:56.907Z,101768.52
2018-05-07T05:48:01.079Z,101762.28
2018-05-07T05:49:06.013Z,101768.12
2018-05-07T05:50:11.126Z,101766.28
2018-05-07T05:51:16.021Z,101770.09
2018-05-07T05:52:20.189Z,101767.84
2018-05-07T05:53:24.349Z,101767.43
2018-05-07T05:54:28.517Z,101764.77
2018-05-07T05:55:32.690Z,101765.91
2018-05-07T05:56:37.658Z,101772.52
2018-05-07T05:57:42.010Z,101760.61
2018-05-07T05:58:46.189Z,101764.84
2018-05-07T05:59:50.380Z,101764.29
2018-05-07T06:00:54.591Z,101764.00
2018-05-07T06:01:58.802Z,101765.08
2018-05-07T06:03:03.800Z,101765.72
2018-05-07T06:04:09.471Z,101759.98
2018-05-07T06:05:14.400Z,101762.81
2018-05-07T06:06:19.343Z,101762.75
2018-05-07T06:07:23.506Z,101772.00
2018-05-07T06:08:27.732Z,101766.97
2018-05-07T06:09:32.734Z,101764.28
2018-05-07T06:10:37.615Z,101766.84
2018-05-07T06:11:41.773Z,101766.02
2018-05-07T06:12:45.942Z,101770.64
2018-05-07T06:13:50.136Z,101769.09
2018-05-07T06:14:54.524Z,101764.39
2018-05-07T06:15:58.532Z,101766.40
2018-05-07T06:17:03.501Z,101765.00
2018-05-07T06:18:07.696Z,101760.48
2018-05-07T06:19:11.919Z,101761.52
2018-05-07T06:20:16.080Z,101766.92
2018-05-07T06:21:21.045Z,101763.27
2018-05-07T06:22:26.058Z,101764.00
2018-05-07T06:23:30.980Z,101762.94
2018-05-07T06:24:35.913Z,101763.55
2018-05-07T06:25:40.101Z,101768.05
2018-05-07T06:26:44.323Z,101764.89
2018-05-07T06:27:48.648Z,101762.56
2018-05-07T06:28:53.573Z,101766.19
2018-05-07T06:29:58.505Z,101769.95
2018-05-07T06:31:02.692Z,101769.80
2018-05-07T06:32:06.852Z,101772.00
2018-05-07T06:33:11.232Z,101769.22
2018-05-07T06:34:15.438Z,101771.78
2018-05-07T06:35:20.357Z,101769.59
2018-05-07T06:36:26.034Z,101766.32
2018-05-07T06:37:30.957Z,101767.92
2018-05-07T06:38:35.209Z,101763.86
2018-05-07T06:39:39.368Z,101763.22
2018-05-07T06:40:44.301Z,101767.67
2018-05-07T06:41:49.227Z,101764.44
2018-05-07T06:42:54.153Z,101760.09
2018-05-07T06:43:59.137Z,101767.28
2018-05-07T06:45:03.369Z,101764.05
2018-05-07T06:46:08.389Z,101760.09
2018-05-07T06:47:12.578Z,101758.20
2018-05-07T06:48:16.740Z,101754.30
2018-05-07T06:49:21.728Z,101759.33
2018-05-07T06:50:25.999Z,101758.34
2018-05-07T06:51:30.211Z,101758.72
2018-05-07T06:52:34.367Z,101760.39
2018-05-07T06:53:38.525Z,101759.21
2018-05-07T06:54:43.476Z,101756.53
2018-05-07T06:55:47.666Z,101765.05
2018-05-07T06:56:52.590Z,101761.43
2018-05-07T06:57:57.515Z,101758.14
2018-05-07T06:59:02.454Z,101756.61
2018-05-07T07:00:06.661Z,101752.94
2018-05-07T07:01:11.259Z,101760.95
2018-05-07T07:02:16.272Z,101759.19
2018-05-07T07:03:20.391Z,101756.53
2018-05-07T07:04:25.321Z,101754.84
2018-05-07T07:05:30.985Z,101755.53
2018-05-07T07:06:36.438Z,101755.25
2018-05-07T07:07:40.608Z,101758.41
2018-05-07T07:08:46.276Z,101750.71
2018-05-07T07:09:51.200Z,101756.03
2018-05-07T07:10:55.380Z,101761.84
2018-05-07T07:11:59.920Z,101757.48
2018-05-07T07:13:04.111Z,101761.11
2018-05-07T07:14:08.277Z,101754.80
2018-05-07T07:15:12.578Z,101758.72
2018-05-07T07:16:16.742Z,101753.83
2018-05-07T07:17:20.956Z,101752.34
2018-05-07T07:18:26.628Z,101752.96
2018-05-07T07:19:31.553Z,101750.58
2018-05-07T07:20:36.485Z,101749.45
2018-05-07T07:21:41.433Z,101746.16
2018-05-07T07:22:45.630Z,101748.78
2018-05-07T07:23:50.553Z,101744.73
2018-05-07T07:24:55.589Z,101740.83
2018-05-07T07:25:59.749Z,101745.60
2018-05-07T07:27:03.956Z,101745.37
2018-05-07T07:28:08.583Z,101743.16
2018-05-07T07:29:12.657Z,101750.09
2018-05-07T07:30:16.841Z,101746.25
2018-05-07T07:31:21.770Z,101749.59
2018-05-07T07:32:26.713Z,101747.42
2018-05-07T07:33:30.952Z,101747.50
2018-05-07T07:34:35.108Z,101752.69
2018-05-07T07:35:40.032Z,101744.94
2018-05-07T07:36:44.967Z,101741.14
2018-05-07T07:37:49.893Z,101745.28
2018-05-07T07:38:55.026Z,101747.72
2018-05-07T07:39:59.958Z,101743.55
2018-05-07T07:41:04.891Z,101746.63
2018-05-07T07:42:09.053Z,101735.78
2018-05-07T07:43:13.216Z,101743.13
2018-05-07T07:44:17.619Z,101744.06
2018-05-07T07:45:22.548Z,101745.07
2018-05-07T07:46:26.742Z,101744.87
2018-05-07T07:47:30.900Z,101741.80
2018-05-07T07:48:35.110Z,101743.83
2018-05-07T07:49:39.365Z,101743.81
2018-05-07T07:50:44.308Z,101744.73
2018-05-07T07:51:49.244Z,101745.54
2018-05-07T07:52:54.686Z,101742.62
2018-05-07T07:53:59.619Z,101742.02
2018-05-07T07:55:04.575Z,101741.59
2018-05-07T07:56:08.738Z,101739.71
2018-05-07T07:57:13.670Z,101749.61
2018-05-07T07:58:18.630Z,101739.38
2018-05-07T07:59:22.880Z,101740.93
2018-05-07T08:00:27.049Z,101739.42
2018-05-07T08:01:31.223Z,101732.38
2018-05-07T08:02:36.149Z,101736.69
2018-05-07T08:03:40.312Z,101738.47
2018-05-07T08:04:44.602Z,101737.48
2018-05-07T08:05:48.775Z,101734.30
2018-05-07T08:06:54.497Z,101736.73
2018-05-07T08:07:58.688Z,101737.34
2018-05-07T08:09:02.869Z,101734.41
2018-05-07T08:10:08.293Z,101723.80
2018-05-07T08:11:13.238Z,101734.34
2018-05-07T08:12:17.435Z,101732.77
2018-05-07T08:13:21.585Z,101729.44
2018-05-07T08:14:25.745Z,101725.75
2018-05-07T08:15:29.965Z,101724.92
2018-05-07T08:16:34.902Z,101720.68
2018-05-07T08:17:39.834Z,101724.15
2018-05-07T08:18:44.006Z,101727.46
2018-05-07T08:19:49.672Z,101727.52
2018-05-07T08:20:54.917Z,101721.02
2018-05-07T08:21:59.850Z,101728.71
2018-05-07T08:23:04.778Z,101721.92
2018-05-07T08:24:08.944Z,101718.56
2018-05-07T08:25:13.188Z,101721.80
2018-05-07T08:26:18.172Z,101725.70
2018-05-07T08:27:22.336Z,101720.22
2018-05-07T08:28:27.273Z,101721.42
2018-05-07T08:29:31.441Z,101719.14
2018-05-07T08:30:37.115Z,101719.38
2018-05-07T08:31:42.064Z,101719.94
2018-05-07T08:32:46.225Z,101718.23
2018-05-07T08:33:50.389Z,101720.77
2018-05-07T08:34:55.076Z,101717.84
2018-05-07T08:36:00.019Z,101715.19
2018-05-07T08:37:04.191Z,101716.80
2018-05-07T08:38:08.352Z,101716.61
2018-05-07T08:39:12.521Z,101711.66
2018-05-07T08:40:16.723Z,101718.74
2018-05-07T08:41:22.525Z,101717.20
2018-05-07T08:42:26.681Z,101714.36
2018-05-07T08:43:30.856Z,101719.46
2018-05-07T08:44:35.025Z,101715.55
2018-05-07T08:45:39.952Z,101720.09
2018-05-07T08:46:44.966Z,101711.41
2018-05-07T08:47:49.908Z,101714.10
2018-05-07T08:48:54.846Z,101717.23
2018-05-07T08:49:59.034Z,101714.53
2018-05-07T08:51:03.227Z,101712.70
2018-05-07T08:52:07.560Z,101713.91
2018-05-07T08:53:12.578Z,101708.66
2018-05-07T08:54:16.693Z,101712.50
2018-05-07T08:55:20.857Z,101707.66
2018-05-07T08:56:25.142Z,101713.38
2018-05-07T08:57:29.755Z,101715.65
2018-05-07T08:58:34.737Z,101711.17
2018-05-07T08:59:39.002Z,101710.24
2018-05-07T09:00:43.160Z,101713.27
2018-05-07T09:01:47.441Z,101712.95
2018-05-07T09:02:51.666Z,101717.53
2018-05-07T09:03:55.830Z,101713.70
2018-05-07T09:05:00.756Z,101715.85
2018-05-07T09:06:05.684Z,101709.19
2018-05-07T09:07:10.613Z,101714.90
2018-05-07T09:08:15.566Z,101706.75
2018-05-07T09:09:19.732Z,101703.15
2018-05-07T09:10:24.058Z,101705.02
2018-05-07T09:11:28.231Z,101711.52
2018-05-07T09:12:32.388Z,101703.55
2018-05-07T09:13:37.364Z,101699.27
2018-05-07T09:14:41.566Z,101695.70
2018-05-07T09:15:45.941Z,101701.45
2018-05-07T09:16:50.874Z,101698.80
2018-05-07T09:17:55.808Z,101694.66
2018-05-07T09:18:59.972Z,101699.70
2018-05-07T09:20:04.145Z,101694.26
2018-05-07T09:21:08.369Z,101697.04
2018-05-07T09:22:12.540Z,101698.09
2018-05-07T09:23:17.477Z,101691.75
2018-05-07T09:24:21.636Z,101697.80
2018-05-07T09:25:25.801Z,101692.88
2018-05-07T09:26:30.002Z,101687.31
2018-05-07T09:27:34.953Z,101686.56
2018-05-07T09:28:39.117Z,101688.69
2018-05-07T09:29:43.288Z,101693.35
2018-05-07T09:30:47.462Z,101688.10
2018-05-07T09:31:51.632Z,101685.55
2018-05-07T09:32:55.840Z,101685.42
2018-05-07T09:34:00.001Z,101689.95
2018-05-07T09:35:04.385Z,101682.14
2018-05-07T09:36:09.313Z,101677.42
2018-05-07T09:37:14.241Z,101680.91
2018-05-07T09:38:18.400Z,101686.36
2018-05-07T09:39:22.569Z,101685.09
2018-05-07T09:40:27.548Z,101677.89
2018-05-07T09:41:31.709Z,101680.23
2018-05-07T09:42:36.642Z,101682.09
2018-05-07T09:43:41.569Z,101682.83
2018-05-07T09:44:46.488Z,101673.70
2018-05-07T09:45:51.437Z,101674.94
2018-05-07T09:46:55.609Z,101672.05
2018-05-07T09:47:59.798Z,101668.88
2018-05-07T09:49:04.025Z,101668.93
2018-05-07T09:50:08.275Z,101673.20
2018-05-07T09:51:12.432Z,101667.33
2018-05-07T09:52:16.693Z,101667.41
2018-05-07T09:53:20.859Z,101661.38
2018-05-07T09:54:25.049Z,101660.09
2018-05-07T09:55:29.221Z,101660.58
2018-05-07T09:56:46.092Z,101659.58
2018-05-07T09:58:04.086Z,101655.65
2018-05-07T09:59:08.250Z,101655.80
2018-05-07T10:00:12.470Z,101661.27
2018-05-07T10:01:17.433Z,101651.86
2018-05-07T10:02:21.601Z,101662.48
2018-05-07T10:03:26.533Z,101650.73
2018-05-07T10:04:31.478Z,101656.13
2018-05-07T10:05:36.206Z,101658.46
2018-05-07T10:06:40.365Z,101647.98
2018-05-07T10:07:44.542Z,101649.45
2018-05-07T10:08:48.709Z,101644.11
2018-05-07T10:09:52.877Z,101645.92
2018-05-07T10:10:57.098Z,101647.46
2018-05-07T10:12:01.262Z,101649.20
2018-05-07T10:13:05.469Z,101646.19
2018-05-07T10:14:09.651Z,101646.81
2018-05-07T10:15:13.822Z,101645.06
2018-05-07T10:16:18.030Z,101650.50
2018-05-07T10:17:22.214Z,101645.36
2018-05-07T10:18:26.381Z,101644.14
2018-05-07T10:19:30.542Z,101639.09
2018-05-07T10:20:34.845Z,101639.82
2018-05-07T10:21:39.058Z,101639.14
2018-05-07T10:22:43.265Z,101641.13
2018-05-07T10:23:47.465Z,101634.90
2018-05-07T10:24:52.398Z,101641.30
2018-05-07T10:25:57.330Z,101643.19
2018-05-07T10:27:02.286Z,101634.20
2018-05-07T10:28:06.961Z,101644.43
2018-05-07T10:29:11.894Z,101637.43
2018-05-07T10:30:16.828Z,101641.31
2018-05-07T10:31:21.008Z,101638.11
2018-05-07T10:32:25.182Z,101639.77
2018-05-07T10:33:29.373Z,101635.38
2018-05-07T10:34:33.537Z,101638.98
2018-05-07T10:35:37.713Z,101632.63
2018-05-07T10:36:42.076Z,101631.55
2018-05-07T10:37:47.009Z,101636.57
2018-05-07T10:38:51.160Z,101623.81
2018-05-07T10:39:55.336Z,101624.75
2018-05-07T10:40:59.533Z,101623.59
2018-05-07T10:42:03.728Z,101629.94
2018-05-07T10:43:07.905Z,101620.20
2018-05-07T10:44:12.069Z,101624.13
2018-05-07T10:45:17.010Z,101620.27
2018-05-07T10:46:21.200Z,101624.59
2018-05-07T10:47:25.397Z,101622.91
2018-05-07T10:48:29.586Z,101626.17
2018-05-07T10:49:33.764Z,101626.41
2018-05-07T10:50:37.921Z,101626.44
2018-05-07T10:51:42.856Z,101620.46
2018-05-07T10:52:47.050Z,101618.11
2018-05-07T10:53:51.276Z,101616.47
2018-05-07T10:54:55.525Z,101618.68
2018-05-07T10:55:59.701Z,101618.23
2018-05-07T10:57:03.905Z,101615.74
2018-05-07T10:58:08.064Z,101614.80
2018-05-07T10:59:12.460Z,101610.70
2018-05-07T11:00:17.406Z,101604.61
2018-05-07T11:01:21.592Z,101608.69
2018-05-07T11:02:26.631Z,101612.89
2018-05-07T11:03:31.562Z,101614.09
2018-05-07T11:04:36.520Z,101605.08
2018-05-07T11:05:40.741Z,101606.94
2018-05-07T11:06:44.915Z,101613.42
2018-05-07T11:07:49.841Z,101610.53
2018-05-07T11:08:54.772Z,101605.52
2018-05-07T11:09:58.934Z,101607.89
2018-05-07T11:11:03.153Z,101608.20
2018-05-07T11:12:07.354Z,101595.63
2018-05-07T11:13:11.517Z,101608.95
2018-05-07T11:14:15.680Z,101603.75
2018-05-07T11:15:19.858Z,101605.63
2018-05-07T11:16:24.048Z,101602.30
2018-05-07T11:17:28.267Z,101601.69
2018-05-07T11:18:32.434Z,101602.64
2018-05-07T11:19:36.728Z,101609.54
2018-05-07T11:20:41.085Z,101602.38
2018-05-07T11:21:45.245Z,101595.87
2018-05-07T11:22:49.433Z,101596.53
2018-05-07T11:23:53.593Z,101598.88
2018-05-07T11:24:58.525Z,101597.72
2018-05-07T11:26:03.486Z,101599.25
2018-05-07T11:27:07.645Z,101595.82
2018-05-07T11:28:11.814Z,101596.73
2018-05-07T11:29:15.973Z,101597.72
2018-05-07T11:30:20.176Z,101597.72
2018-05-07T11:31:24.349Z,101592.47
2018-05-07T11:32:28.524Z,101595.77
2018-05-07T11:33:33.456Z,101591.17
2018-05-07T11:34:37.616Z,101589.63
2018-05-07T11:35:41.960Z,101587.12
2018-05-07T11:36:46.898Z,101578.40
2018-05-07T11:37:51.844Z,101579.33
2018-05-07T11:38:56.025Z,101581.85
2018-05-07T11:40:00.181Z,101585.23
2018-05-07T11:41:04.463Z,101591.17
2018-05-07T11:42:09.785Z,101585.84
2018-05-07T11:43:14.719Z,101580.54
2018-05-07T11:44:19.641Z,101581.20
2018-05-07T11:45:24.586Z,101578.33
2018-05-07T11:46:28.762Z,101574.63
2018-05-07T11:47:33.041Z,101577.98
2018-05-07T11:48:37.891Z,101591.15
2018-05-07T11:49:42.537Z,101574.17
2018-05-07T11:50:47.474Z,101579.39
2018-05-07T11:51:52.411Z,101575.98
2018-05-07T11:52:57.332Z,101576.53
2018-05-07T11:54:02.274Z,101574.08
2018-05-07T11:55:06.681Z,101579.60
2018-05-07T11:56:11.611Z,101578.91
2018-05-07T11:57:15.767Z,101572.87
2018-05-07T11:58:19.936Z,101580.48
2018-05-07T11:59:24.162Z,101573.11
2018-05-07T12:00:28.388Z,101573.87
2018-05-07T12:01:32.601Z,101580.50
2018-05-07T12:02:36.819Z,101578.22
2018-05-07T12:03:40.956Z,101573.67
2018-05-07T12:04:45.149Z,101575.67
2018-05-07T12:05:49.408Z,101570.58
2018-05-07T12:06:53.560Z,101574.09
2018-05-07T12:07:57.732Z,101571.41
2018-05-07T12:09:01.968Z,101566.45
2018-05-07T12:10:06.184Z,101560.81
2018-05-07T12:11:10.340Z,101558.08
2018-05-07T12:12:23.410Z,101563.50
2018-05-07T12:13:30.132Z,101561.63
2018-05-07T12:14:35.149Z,101562.02
2018-05-07T12:15:39.309Z,101556.48
2018-05-07T12:16:43.500Z,101559.71
2018-05-07T12:17:47.666Z,101558.47
2018-05-07T12:18:51.882Z,101562.50